LTAU/ASR METAR and TAF weather

Enter ICAO airport designator
Station Type Date Time Source
LTAU METAR 2019/08/25 03:20 UTC NOAA

LTAU 250320Z 06003KT 020V090 CAVOK 14/12 Q1018 NOSIG


Station Type Date Time Source
LTAU Decoded METAR 2019/08/25 03:20 UTC NOAA

Station name not available
Aug 24, 2019 - 11:20 PM EDT / 2019.08.25 0320 UTC
Wind: from the ENE (060 degrees) at 3 MPH (3 KT) (direction variable):0
Visibility: greater than 7 mile(s):0
Temperature: 57 F (14 C)
Dew Point: 53 F (12 C)
Relative Humidity: 87%
Pressure (altimeter): 30.06 in. Hg (1018 hPa)
ob: LTAU 250320Z 06003KT 020V090 CAVOK 14/12 Q1018 NOSIG
cycle: 3

Station Type Date Time Source
LTAU TAF 2019/08/24 18:03 UTC NOAA

TAF LTAU 241640Z 2418/2518 06012KT CAVOK
BECMG 2418/2421 VRB02KT
BECMG 2506/2509 FEW040
TEMPO 2515/2518 03012KT
BECMG 2515/2518 CAVOK

Example: see airport list